createdAt,value
2019-02-12T00:00:39.764Z,3.98
2019-02-12T00:03:28.632Z,3.99
2019-02-12T00:06:17.472Z,3.80
2019-02-12T00:12:15.802Z,4.07
2019-02-12T00:18:20.666Z,4.17
2019-02-12T00:21:09.617Z,4.20
2019-02-12T00:23:58.445Z,4.23
2019-02-12T00:26:39.858Z,4.25
2019-02-12T00:29:28.704Z,4.27
2019-02-12T00:32:17.680Z,4.29
2019-02-12T00:38:21.771Z,4.36
2019-02-12T00:41:10.580Z,4.38
2019-02-12T00:43:59.439Z,4.12
2019-02-12T00:46:48.311Z,4.42
2019-02-12T00:49:37.138Z,4.44
2019-02-12T00:52:25.986Z,4.46
2019-02-12T00:55:14.801Z,4.47
2019-02-12T00:58:03.641Z,4.48
2019-02-12T01:01:11.577Z,4.09
2019-02-12T01:03:53.529Z,4.49
2019-02-12T01:06:42.392Z,4.51
2019-02-12T01:09:31.209Z,4.53
2019-02-12T01:12:20.073Z,4.54
2019-02-12T01:15:02.208Z,4.52
2019-02-12T01:17:51.041Z,4.52
2019-02-12T01:20:39.979Z,4.52
2019-02-12T01:23:28.840Z,4.51
2019-02-12T01:26:10.229Z,4.51
2019-02-12T01:28:59.098Z,4.50
2019-02-12T01:31:47.954Z,4.48
2019-02-12T01:34:36.767Z,4.46
2019-02-12T01:37:25.663Z,4.44
2019-02-12T01:40:14.523Z,4.06
2019-02-12T01:43:24.303Z,4.41
2019-02-12T01:46:13.129Z,4.37
2019-02-12T01:49:01.966Z,4.36
2019-02-12T01:51:50.948Z,4.34
2019-02-12T01:54:54.473Z,4.33
2019-02-12T01:57:11.071Z,4.29
2019-02-12T01:59:59.929Z,4.27
2019-02-12T02:02:48.797Z,4.25
2019-02-12T02:05:30.652Z,4.26
2019-02-12T02:08:19.499Z,4.25
2019-02-12T02:11:08.347Z,4.24
2019-02-12T02:13:57.214Z,4.24
2019-02-12T02:16:46.091Z,4.23
2019-02-12T02:19:34.937Z,4.22
2019-02-12T02:22:23.779Z,4.18
2019-02-12T02:25:33.498Z,4.15
2019-02-12T02:28:22.370Z,4.11
2019-02-12T02:31:11.169Z,4.00
2019-02-12T02:34:00.052Z,4.02
2019-02-12T02:36:48.875Z,3.97
2019-02-12T02:39:37.722Z,3.90
2019-02-12T02:42:26.610Z,3.82
2019-02-12T02:45:15.512Z,3.73
2019-02-12T02:48:04.592Z,3.67
2019-02-12T02:50:53.405Z,3.59
2019-02-12T02:53:42.269Z,3.54
2019-02-12T02:56:31.070Z,3.52
2019-02-12T02:59:19.923Z,3.51
2019-02-12T03:02:08.734Z,3.52
2019-02-12T03:04:50.819Z,3.52
2019-02-12T03:07:39.708Z,3.55
2019-02-12T03:10:28.543Z,3.56
2019-02-12T03:13:17.401Z,3.58
2019-02-12T03:16:06.309Z,3.61
2019-02-12T03:18:55.123Z,3.64
2019-02-12T03:21:43.952Z,3.55
2019-02-12T03:24:32.820Z,3.70
2019-02-12T03:27:21.660Z,3.73
2019-02-12T03:30:31.485Z,3.66
2019-02-12T03:33:20.315Z,3.28
2019-02-12T03:36:09.130Z,3.76
2019-02-12T03:38:57.980Z,3.78
2019-02-12T03:41:46.817Z,3.78
2019-02-12T03:44:35.625Z,3.80
2019-02-12T03:47:24.482Z,3.79
2019-02-12T03:50:13.479Z,3.80
2019-02-12T03:53:02.310Z,3.30
2019-02-12T03:55:51.195Z,3.75
2019-02-12T03:58:40.110Z,3.72
2019-02-12T04:01:28.976Z,3.69
2019-02-12T04:03:58.555Z,3.70
2019-02-12T04:06:38.318Z,3.71
2019-02-12T04:09:27.219Z,3.73
2019-02-12T04:12:16.042Z,3.77
2019-02-12T04:15:05.653Z,3.80
2019-02-12T04:17:54.512Z,3.84
2019-02-12T04:23:52.709Z,3.88
2019-02-12T04:26:41.567Z,3.93
2019-02-12T04:29:30.549Z,3.96
2019-02-12T04:32:19.385Z,4.00
2019-02-12T04:35:08.321Z,4.04
2019-02-12T04:37:57.120Z,4.08
2019-02-12T04:40:46.741Z,4.12
2019-02-12T04:43:35.604Z,4.14
2019-02-12T04:46:24.705Z,4.15
2019-02-12T04:49:13.534Z,4.15
2019-02-12T04:52:02.461Z,4.14
2019-02-12T04:54:51.263Z,4.12
2019-02-12T04:57:40.131Z,4.11
2019-02-12T05:00:28.952Z,4.08
2019-02-12T05:03:17.831Z,4.05
2019-02-12T05:05:59.710Z,3.52
2019-02-12T05:09:27.241Z,3.45
2019-02-12T05:12:17.343Z,3.38
2019-02-12T05:18:22.737Z,3.79
2019-02-12T05:21:11.567Z,3.73
2019-02-12T05:23:53.370Z,3.67
2019-02-12T05:26:56.923Z,3.61
2019-02-12T05:32:48.425Z,3.53
2019-02-12T05:35:37.278Z,3.48
2019-02-12T05:38:26.116Z,3.45
2019-02-12T05:41:15.027Z,3.41
2019-02-12T05:44:03.959Z,3.40
2019-02-12T05:46:52.803Z,3.37
2019-02-12T05:49:41.609Z,3.35
2019-02-12T05:52:30.479Z,3.32
2019-02-12T05:55:19.313Z,3.30
2019-02-12T05:58:08.193Z,3.27
2019-02-12T06:00:56.993Z,3.25
2019-02-12T06:03:45.861Z,3.23
2019-02-12T06:06:27.972Z,3.21
2019-02-12T06:09:16.826Z,3.20
2019-02-12T06:12:05.710Z,3.20
2019-02-12T06:14:54.616Z,3.19
2019-02-12T06:17:43.418Z,3.19
2019-02-12T06:20:32.310Z,2.96
2019-02-12T06:23:21.116Z,3.19
2019-02-12T06:26:10.201Z,3.21
2019-02-12T06:28:39.696Z,3.22
2019-02-12T06:31:28.554Z,3.22
2019-02-12T06:37:13.467Z,3.25
2019-02-12T06:40:02.362Z,3.26
2019-02-12T06:42:51.192Z,3.27
2019-02-12T06:45:40.068Z,2.79
2019-02-12T06:48:09.572Z,3.27
2019-02-12T06:50:39.190Z,3.26
2019-02-12T06:53:28.058Z,3.27
2019-02-12T06:55:57.514Z,3.27
2019-02-12T06:58:27.030Z,3.26
2019-02-12T07:00:56.472Z,3.26
2019-02-12T07:04:06.251Z,3.28
2019-02-12T07:06:52.463Z,3.29
2019-02-12T07:10:02.253Z,3.13
2019-02-12T07:13:12.034Z,3.31
2019-02-12T07:15:53.618Z,3.20
2019-02-12T07:19:10.825Z,3.38
2019-02-12T07:22:20.616Z,3.41
2019-02-12T07:25:30.428Z,3.45
2019-02-12T07:29:02.239Z,3.41
2019-02-12T07:32:12.086Z,3.49
2019-02-12T07:35:39.593Z,3.15
2019-02-12T07:38:49.357Z,3.55
2019-02-12T07:41:59.119Z,3.59
2019-02-12T07:45:26.641Z,3.63
2019-02-12T07:48:54.166Z,3.69
2019-02-12T07:52:03.892Z,3.76
2019-02-12T07:55:35.446Z,3.84
2019-02-12T07:59:02.985Z,3.92
2019-02-12T08:02:30.542Z,3.96
2019-02-12T08:09:35.242Z,4.12
2019-02-12T08:13:02.783Z,4.20
2019-02-12T08:16:30.302Z,4.14
2019-02-12T08:19:57.812Z,4.39
2019-02-12T08:23:29.363Z,4.49
2019-02-12T08:30:34.369Z,4.55
2019-02-12T08:34:05.881Z,4.73
2019-02-12T08:37:15.654Z,4.78
2019-02-12T08:40:43.203Z,4.86
2019-02-12T08:43:52.961Z,4.91
2019-02-12T08:47:02.756Z,4.88
2019-02-12T08:50:32.414Z,5.00
2019-02-12T08:53:50.029Z,5.05
2019-02-12T08:56:53.364Z,5.13
2019-02-12T09:00:20.889Z,5.20
2019-02-12T09:03:30.622Z,4.68
2019-02-12T09:06:14.282Z,5.33
2019-02-12T09:09:24.028Z,5.39
2019-02-12T09:12:51.569Z,4.87
2019-02-12T09:16:19.118Z,5.50
2019-02-12T09:19:28.891Z,5.59
2019-02-12T09:22:38.593Z,5.67
2019-02-12T09:25:48.358Z,5.75
2019-02-12T09:28:58.163Z,5.83
2019-02-12T09:32:07.900Z,5.92
2019-02-12T09:35:17.686Z,6.00
2019-02-12T09:38:01.297Z,6.08
2019-02-12T09:41:11.071Z,6.16
2019-02-12T09:44:20.892Z,6.22
2019-02-12T09:51:04.510Z,6.35
2019-02-12T09:54:14.360Z,6.40
2019-02-12T09:57:24.125Z,6.45
2019-02-12T10:00:33.885Z,6.50
2019-02-12T10:03:43.670Z,6.55
2019-02-12T10:07:05.374Z,6.62
2019-02-12T10:10:22.737Z,6.69
2019-02-12T10:17:09.085Z,6.85
2019-02-12T10:20:36.594Z,6.95
2019-02-12T10:23:37.736Z,7.04
2019-02-12T10:26:47.485Z,7.14
2019-02-12T10:29:57.283Z,7.21
2019-02-12T10:32:46.192Z,6.80
2019-02-12T10:35:35.072Z,7.41
2019-02-12T10:38:23.998Z,7.53
2019-02-12T10:40:53.490Z,7.62
2019-02-12T10:43:42.361Z,7.72
2019-02-12T10:46:31.189Z,7.82
2019-02-12T10:49:20.019Z,7.89
2019-02-12T10:51:51.000Z,7.97
2019-02-12T10:54:40.130Z,8.04
2019-02-12T10:57:28.981Z,8.10
2019-02-12T11:00:17.988Z,8.16
2019-02-12T11:03:06.780Z,8.26
2019-02-12T11:05:55.661Z,8.36
2019-02-12T11:08:37.570Z,8.44
2019-02-12T11:11:26.573Z,8.07
2019-02-12T11:14:15.461Z,8.56
2019-02-12T11:17:04.379Z,8.62
2019-02-12T11:19:53.189Z,8.68
2019-02-12T11:22:22.953Z,8.72
2019-02-12T11:24:59.546Z,8.76
2019-02-12T11:27:48.466Z,8.79
2019-02-12T11:30:37.348Z,8.85
2019-02-12T11:33:26.351Z,8.91
2019-02-12T11:36:15.180Z,8.96
2019-02-12T11:39:24.744Z,9.02
2019-02-12T11:42:13.233Z,9.08
2019-02-12T11:44:42.805Z,9.12
2019-02-12T11:47:31.736Z,9.15
2019-02-12T11:56:40.075Z,9.26
2019-02-12T11:59:28.913Z,9.28
2019-02-12T12:05:13.885Z,9.33
2019-02-12T12:07:43.408Z,9.36
2019-02-12T12:10:32.332Z,9.40
2019-02-12T12:13:21.268Z,9.40
2019-02-12T12:55:43.280Z,9.71
2019-02-12T12:58:25.298Z,9.75
2019-02-12T13:01:14.148Z,9.79
2019-02-12T13:03:43.602Z,9.47
2019-02-12T13:06:32.445Z,9.83
2019-02-12T13:09:21.304Z,9.86
2019-02-12T13:12:10.216Z,9.88
2019-02-12T13:14:59.043Z,9.92
2019-02-12T13:17:47.933Z,9.94
2019-02-12T13:20:36.841Z,9.95
2019-02-12T13:23:25.647Z,9.96
2019-02-12T13:26:07.140Z,9.92
2019-02-12T13:28:55.996Z,9.98
2019-02-12T13:31:44.987Z,9.99
2019-02-12T13:34:33.869Z,10.00
2019-02-12T13:37:22.669Z,9.49
2019-02-12T13:40:32.417Z,9.73
2019-02-12T13:43:21.357Z,9.96
2019-02-12T13:46:10.290Z,10.01
2019-02-12T13:48:59.110Z,10.04
2019-02-12T13:51:47.995Z,10.07
2019-02-12T13:54:36.814Z,10.10
2019-02-12T13:57:25.684Z,10.10
2019-02-12T14:00:33.928Z,10.10
2019-02-12T14:03:22.931Z,10.12
2019-02-12T14:09:04.811Z,10.13
2019-02-12T14:11:53.733Z,10.12
2019-02-12T14:14:42.598Z,10.14
2019-02-12T14:17:31.493Z,10.15
2019-02-12T14:20:20.399Z,10.16
2019-02-12T14:23:09.221Z,10.19
2019-02-12T14:25:58.079Z,10.20
2019-02-12T14:28:46.960Z,10.23
2019-02-12T14:31:35.782Z,10.26
2019-02-12T14:34:24.685Z,10.30
2019-02-12T14:40:22.919Z,10.34
2019-02-12T14:43:14.145Z,10.35
2019-02-12T14:46:02.416Z,10.37
2019-02-12T14:48:52.871Z,10.38
2019-02-12T14:51:41.789Z,10.41
2019-02-12T14:54:30.589Z,10.00
2019-02-12T14:57:19.615Z,10.41
2019-02-12T15:00:27.717Z,10.42
2019-02-12T15:03:16.644Z,10.43
2019-02-12T15:06:05.510Z,10.43
2019-02-12T15:08:47.161Z,10.43
2019-02-12T15:11:36.102Z,10.43
2019-02-12T15:14:24.949Z,10.42
2019-02-12T15:17:13.795Z,10.39
2019-02-12T15:20:02.601Z,10.35
2019-02-12T15:22:51.446Z,10.32
2019-02-12T15:25:41.927Z,10.29
2019-02-12T15:28:30.984Z,10.30
2019-02-12T15:31:19.820Z,10.16
2019-02-12T15:37:04.029Z,10.30
2019-02-12T15:40:13.771Z,10.30
2019-02-12T15:43:02.618Z,10.28
2019-02-12T15:45:51.505Z,10.26
2019-02-12T15:48:40.385Z,10.23
2019-02-12T15:51:29.194Z,10.18
2019-02-12T15:53:58.678Z,10.14
2019-02-12T15:56:28.184Z,10.10
2019-02-12T15:58:57.756Z,10.06
2019-02-12T16:01:30.227Z,10.02
2019-02-12T16:04:00.258Z,9.98
2019-02-12T16:06:29.863Z,9.95
2019-02-12T16:08:59.327Z,9.92
2019-02-12T16:11:30.278Z,9.88
2019-02-12T16:13:59.767Z,9.84
2019-02-12T16:16:30.133Z,9.80
2019-02-12T16:19:00.476Z,9.76
2019-02-12T16:21:29.982Z,9.72
2019-02-12T16:23:59.551Z,9.65
2019-02-12T16:26:35.434Z,9.59
2019-02-12T16:29:04.952Z,9.54
2019-02-12T16:31:34.622Z,9.46
2019-02-12T16:34:04.130Z,9.38
2019-02-12T16:36:58.267Z,9.30
2019-02-12T16:39:07.289Z,9.23
2019-02-12T16:41:36.790Z,9.15
2019-02-12T16:44:06.318Z,9.06
2019-02-12T16:46:35.841Z,8.97
2019-02-12T16:49:05.334Z,8.89
2019-02-12T16:51:34.790Z,8.81
2019-02-12T16:54:04.346Z,8.72
2019-02-12T16:56:33.823Z,8.64
2019-02-12T16:59:03.849Z,8.55
2019-02-12T17:01:33.394Z,8.48
2019-02-12T17:04:04.420Z,8.40
2019-02-12T17:06:34.006Z,8.32
2019-02-12T17:09:04.561Z,8.26
2019-02-12T17:11:34.032Z,8.19
2019-02-12T17:14:03.680Z,8.11
2019-02-12T17:16:36.236Z,8.02
2019-02-12T17:19:05.828Z,7.94
2019-02-12T17:21:35.321Z,7.86
2019-02-12T17:24:04.800Z,7.77
2019-02-12T17:26:34.318Z,7.68
2019-02-12T17:29:03.850Z,7.60
2019-02-12T17:31:33.402Z,7.50
2019-02-12T17:34:02.924Z,7.40
2019-02-12T17:36:32.410Z,7.31
2019-02-12T17:39:01.890Z,7.22
2019-02-12T17:41:31.368Z,7.14
2019-02-12T17:44:00.910Z,7.05
2019-02-12T17:46:30.428Z,7.00
2019-02-12T17:48:59.876Z,6.92
2019-02-12T17:51:29.364Z,6.88
2019-02-12T17:53:58.870Z,6.82
2019-02-12T17:56:28.371Z,6.75
2019-02-12T17:58:57.931Z,6.70
2019-02-12T18:01:27.470Z,6.66
2019-02-12T18:03:56.980Z,6.62
2019-02-12T18:06:29.493Z,6.59
2019-02-12T18:08:59.053Z,6.56
2019-02-12T18:11:28.558Z,6.52
2019-02-12T18:13:58.040Z,6.48
2019-02-12T18:16:27.555Z,6.45
2019-02-12T18:18:59.994Z,6.45
2019-02-12T18:21:29.540Z,6.42
2019-02-12T18:23:59.050Z,6.41
2019-02-12T18:26:33.287Z,6.40
2019-02-12T18:28:59.712Z,6.39
2019-02-12T18:31:29.194Z,6.38
2019-02-12T18:33:58.766Z,6.38
2019-02-12T18:36:28.242Z,6.38
2019-02-12T18:38:57.809Z,6.39
2019-02-12T18:41:27.281Z,6.38
2019-02-12T18:43:56.786Z,6.38
2019-02-12T18:46:29.050Z,6.40
2019-02-12T18:49:00.065Z,6.40
2019-02-12T18:51:29.522Z,6.40
2019-02-12T18:53:59.044Z,6.41
2019-02-12T18:56:28.615Z,6.40
2019-02-12T18:58:58.097Z,6.40
2019-02-12T19:01:27.748Z,6.38
2019-02-12T19:03:57.283Z,6.37
2019-02-12T19:06:26.800Z,6.37
2019-02-12T19:08:56.266Z,6.37
2019-02-12T19:11:25.817Z,6.36
2019-02-12T19:13:55.447Z,6.38
2019-02-12T19:16:24.966Z,6.39
2019-02-12T19:18:56.094Z,6.42
2019-02-12T19:21:25.650Z,6.44
2019-02-12T19:23:55.143Z,6.46
2019-02-12T19:26:24.678Z,6.48
2019-02-12T19:28:54.145Z,6.50
2019-02-12T19:31:23.634Z,6.52
2019-02-12T19:33:53.100Z,6.52
2019-02-12T19:36:22.611Z,6.54
2019-02-12T19:38:52.130Z,6.54
2019-02-12T19:41:21.599Z,6.54
2019-02-12T19:43:51.107Z,6.54
2019-02-12T19:46:20.610Z,6.52
2019-02-12T19:48:50.144Z,6.50
2019-02-12T19:51:19.670Z,6.46
2019-02-12T19:53:49.159Z,6.43
2019-02-12T19:56:18.666Z,6.39
2019-02-12T19:58:48.148Z,6.36
2019-02-12T20:01:17.643Z,6.32
2019-02-12T20:03:47.201Z,6.29
2019-02-12T20:06:16.735Z,6.26
2019-02-12T20:08:46.213Z,6.23
2019-02-12T20:11:15.719Z,6.18
2019-02-12T20:13:45.203Z,6.13
2019-02-12T20:16:16.319Z,6.11
2019-02-12T20:18:45.842Z,6.07
2019-02-12T20:21:15.378Z,6.05
2019-02-12T20:23:44.885Z,6.02
2019-02-12T20:26:14.397Z,5.99
2019-02-12T20:28:45.665Z,5.95
2019-02-12T20:31:15.213Z,5.91
2019-02-12T20:33:44.715Z,5.86
2019-02-12T20:36:14.270Z,5.82
2019-02-12T20:38:43.791Z,5.64
2019-02-12T20:41:13.354Z,5.70
2019-02-12T20:43:42.952Z,5.63
2019-02-12T20:46:12.522Z,5.58
2019-02-12T20:48:42.084Z,5.52
2019-02-12T20:51:11.712Z,5.45
2019-02-12T20:53:41.244Z,5.38
2019-02-12T20:56:10.821Z,5.32
2019-02-12T20:58:40.297Z,5.28
2019-02-12T21:01:09.816Z,5.21
2019-02-12T21:03:39.426Z,5.17
2019-02-12T21:06:08.956Z,5.10
2019-02-12T21:08:38.455Z,5.05
2019-02-12T21:11:10.049Z,5.00
2019-02-12T21:13:39.129Z,4.95
2019-02-12T21:16:09.142Z,4.89
2019-02-12T21:18:38.654Z,4.82
2019-02-12T21:21:08.202Z,4.78
2019-02-12T21:23:37.860Z,4.73
2019-02-12T21:26:07.428Z,4.68
2019-02-12T21:28:36.926Z,4.63
2019-02-12T21:31:06.488Z,4.58
2019-02-12T21:33:37.531Z,4.53
2019-02-12T21:36:07.022Z,4.49
2019-02-12T21:38:36.552Z,4.45
2019-02-12T21:41:06.007Z,4.40
2019-02-12T21:43:35.468Z,4.34
2019-02-12T21:46:05.024Z,4.29
2019-02-12T21:48:34.490Z,4.24
2019-02-12T21:51:05.380Z,4.20
2019-02-12T21:53:34.818Z,4.18
2019-02-12T21:56:04.380Z,4.15
2019-02-12T21:58:33.845Z,4.14
2019-02-12T22:01:05.983Z,4.10
2019-02-12T22:03:35.479Z,4.09
2019-02-12T22:06:05.040Z,4.08
2019-02-12T22:08:34.499Z,4.07
2019-02-12T22:11:04.008Z,4.05
2019-02-12T22:13:33.495Z,4.04
2019-02-12T22:16:03.025Z,4.02
2019-02-12T22:18:32.587Z,4.02
2019-02-12T22:21:02.064Z,4.01
2019-02-12T22:23:31.546Z,4.00
2019-02-12T22:26:01.090Z,3.98
2019-02-12T22:28:30.579Z,3.96
2019-02-12T22:31:00.075Z,3.96
2019-02-12T22:33:29.557Z,3.94
2019-02-12T22:35:59.067Z,3.92
2019-02-12T22:38:28.612Z,3.92
2019-02-12T22:40:58.108Z,3.91
2019-02-12T22:43:27.562Z,3.91
2019-02-12T22:45:57.052Z,3.90
2019-02-12T22:48:26.614Z,3.90
2019-02-12T22:50:56.143Z,3.89
2019-02-12T22:53:25.635Z,3.87
2019-02-12T22:55:55.105Z,3.86
2019-02-12T22:58:24.688Z,3.85
2019-02-12T23:01:01.506Z,3.86
2019-02-12T23:03:31.131Z,3.86
2019-02-12T23:06:00.688Z,3.86
2019-02-12T23:08:30.155Z,3.86
2019-02-12T23:10:59.714Z,3.86
2019-02-12T23:13:29.232Z,3.87
2019-02-12T23:15:58.754Z,3.87
2019-02-12T23:18:28.344Z,3.89
2019-02-12T23:20:57.835Z,3.90
2019-02-12T23:23:27.327Z,3.91
2019-02-12T23:25:56.809Z,3.94
2019-02-12T23:28:26.265Z,3.96
2019-02-12T23:30:55.789Z,3.99
2019-02-12T23:33:25.252Z,4.02
2019-02-12T23:35:54.706Z,4.05
2019-02-12T23:38:24.190Z,4.09
2019-02-12T23:40:53.666Z,4.13
2019-02-12T23:43:23.161Z,4.15
2019-02-12T23:45:52.629Z,4.16
2019-02-12T23:48:22.081Z,4.18
2019-02-12T23:50:51.601Z,4.20
2019-02-12T23:53:21.062Z,4.23
2019-02-12T23:55:50.578Z,4.26
2019-02-12T23:58:20.080Z,4.29
